sensor_id;sensor_type;location;lat;lon;timestamp;P1;durP1;ratioP1;P2;durP2;ratioP2
6751;SDS011;3413;47.680;9.166;2023-08-12T00:02:32;5.67;;;2.80;;
6751;SDS011;3413;47.680;9.166;2023-08-12T00:07:34;4.60;;;1.90;;
6751;SDS011;3413;47.680;9.166;2023-08-12T00:12:36;5.07;;;2.13;;
6751;SDS011;3413;47.680;9.166;2023-08-12T00:17:38;3.27;;;2.00;;
6751;SDS011;3413;47.680;9.166;2023-08-12T00:22:43;5.90;;;2.70;;
6751;SDS011;3413;47.680;9.166;2023-08-12T00:27:45;3.97;;;2.20;;
6751;SDS011;3413;47.680;9.166;2023-08-12T00:32:47;5.00;;;2.90;;
6751;SDS011;3413;47.680;9.166;2023-08-12T00:37:49;4.77;;;2.70;;
6751;SDS011;3413;47.680;9.166;2023-08-12T00:42:51;4.13;;;2.20;;
6751;SDS011;3413;47.680;9.166;2023-08-12T00:47:53;4.47;;;2.37;;
6751;SDS011;3413;47.680;9.166;2023-08-12T00:52:55;6.20;;;2.47;;
6751;SDS011;3413;47.680;9.166;2023-08-12T00:57:57;5.73;;;2.60;;
6751;SDS011;3413;47.680;9.166;2023-08-12T01:02:59;32.47;;;3.30;;
6751;SDS011;3413;47.680;9.166;2023-08-12T01:08:02;9.53;;;2.40;;
6751;SDS011;3413;47.680;9.166;2023-08-12T01:13:14;3.97;;;2.10;;
6751;SDS011;3413;47.680;9.166;2023-08-12T01:18:25;4.50;;;2.50;;
6751;SDS011;3413;47.680;9.166;2023-08-12T01:23:28;3.70;;;2.00;;
6751;SDS011;3413;47.680;9.166;2023-08-12T01:28:32;4.13;;;2.50;;
6751;SDS011;3413;47.680;9.166;2023-08-12T01:33:48;3.50;;;1.93;;
6751;SDS011;3413;47.680;9.166;2023-08-12T01:39:02;3.80;;;2.40;;
6751;SDS011;3413;47.680;9.166;2023-08-12T01:44:06;5.27;;;2.40;;
6751;SDS011;3413;47.680;9.166;2023-08-12T01:49:09;4.13;;;2.40;;
6751;SDS011;3413;47.680;9.166;2023-08-12T01:54:10;6.23;;;2.70;;
6751;SDS011;3413;47.680;9.166;2023-08-12T01:59:12;5.97;;;2.57;;
6751;SDS011;3413;47.680;9.166;2023-08-12T02:04:14;6.13;;;2.53;;
6751;SDS011;3413;47.680;9.166;2023-08-12T02:09:16;7.83;;;2.60;;
6751;SDS011;3413;47.680;9.166;2023-08-12T02:14:18;5.07;;;2.57;;
6751;SDS011;3413;47.680;9.166;2023-08-12T02:19:20;8.77;;;2.90;;
6751;SDS011;3413;47.680;9.166;2023-08-12T02:24:22;5.27;;;2.80;;
6751;SDS011;3413;47.680;9.166;2023-08-12T02:29:24;6.20;;;2.70;;
6751;SDS011;3413;47.680;9.166;2023-08-12T02:34:26;4.10;;;2.30;;
6751;SDS011;3413;47.680;9.166;2023-08-12T02:39:28;5.00;;;2.60;;
6751;SDS011;3413;47.680;9.166;2023-08-12T02:44:30;4.97;;;2.50;;
6751;SDS011;3413;47.680;9.166;2023-08-12T02:49:32;4.80;;;2.23;;
6751;SDS011;3413;47.680;9.166;2023-08-12T02:54:34;3.83;;;2.10;;
6751;SDS011;3413;47.680;9.166;2023-08-12T02:59:36;4.97;;;2.20;;
6751;SDS011;3413;47.680;9.166;2023-08-12T03:04:38;5.47;;;2.37;;
6751;SDS011;3413;47.680;9.166;2023-08-12T03:09:40;6.27;;;2.80;;
6751;SDS011;3413;47.680;9.166;2023-08-12T03:14:42;9.63;;;2.63;;
6751;SDS011;3413;47.680;9.166;2023-08-12T03:19:44;6.50;;;2.97;;
6751;SDS011;3413;47.680;9.166;2023-08-12T03:24:47;5.83;;;2.93;;
6751;SDS011;3413;47.680;9.166;2023-08-12T03:29:51;6.83;;;2.43;;
6751;SDS011;3413;47.680;9.166;2023-08-12T03:34:53;6.47;;;2.50;;
6751;SDS011;3413;47.680;9.166;2023-08-12T03:39:56;6.00;;;2.87;;
6751;SDS011;3413;47.680;9.166;2023-08-12T03:44:59;3.00;;;2.20;;
6751;SDS011;3413;47.680;9.166;2023-08-12T03:50:01;4.90;;;2.80;;
6751;SDS011;3413;47.680;9.166;2023-08-12T03:55:04;5.07;;;2.40;;
6751;SDS011;3413;47.680;9.166;2023-08-12T04:00:07;9.10;;;2.60;;
6751;SDS011;3413;47.680;9.166;2023-08-12T04:05:14;3.70;;;2.60;;
6751;SDS011;3413;47.680;9.166;2023-08-12T04:10:16;4.30;;;2.57;;
6751;SDS011;3413;47.680;9.166;2023-08-12T04:15:19;4.13;;;2.50;;
6751;SDS011;3413;47.680;9.166;2023-08-12T04:20:20;5.20;;;2.73;;
6751;SDS011;3413;47.680;9.166;2023-08-12T04:25:23;4.53;;;2.83;;
6751;SDS011;3413;47.680;9.166;2023-08-12T04:30:26;6.90;;;2.50;;
6751;SDS011;3413;47.680;9.166;2023-08-12T04:35:31;5.27;;;2.77;;
6751;SDS011;3413;47.680;9.166;2023-08-12T04:40:37;5.10;;;2.60;;
6751;SDS011;3413;47.680;9.166;2023-08-12T04:45:44;7.47;;;3.00;;
6751;SDS011;3413;47.680;9.166;2023-08-12T04:50:47;5.20;;;2.63;;
6751;SDS011;3413;47.680;9.166;2023-08-12T04:55:51;5.60;;;3.03;;
6751;SDS011;3413;47.680;9.166;2023-08-12T05:00:53;8.30;;;2.40;;
6751;SDS011;3413;47.680;9.166;2023-08-12T05:05:56;4.37;;;2.57;;
6751;SDS011;3413;47.680;9.166;2023-08-12T05:11:01;8.53;;;3.30;;
6751;SDS011;3413;47.680;9.166;2023-08-12T05:16:03;7.67;;;3.33;;
6751;SDS011;3413;47.680;9.166;2023-08-12T05:21:06;4.70;;;2.63;;
6751;SDS011;3413;47.680;9.166;2023-08-12T05:26:08;6.03;;;2.80;;
6751;SDS011;3413;47.680;9.166;2023-08-12T05:31:10;5.90;;;2.80;;
6751;SDS011;3413;47.680;9.166;2023-08-12T05:36:11;4.90;;;2.90;;
6751;SDS011;3413;47.680;9.166;2023-08-12T05:41:13;4.47;;;2.63;;
6751;SDS011;3413;47.680;9.166;2023-08-12T05:46:15;4.87;;;2.90;;
6751;SDS011;3413;47.680;9.166;2023-08-12T05:51:17;5.87;;;3.00;;
6751;SDS011;3413;47.680;9.166;2023-08-12T05:56:19;8.67;;;3.10;;
6751;SDS011;3413;47.680;9.166;2023-08-12T06:01:21;8.77;;;2.80;;
6751;SDS011;3413;47.680;9.166;2023-08-12T06:06:23;5.47;;;3.50;;
6751;SDS011;3413;47.680;9.166;2023-08-12T06:11:25;6.93;;;3.43;;
6751;SDS011;3413;47.680;9.166;2023-08-12T06:16:27;7.23;;;4.00;;
6751;SDS011;3413;47.680;9.166;2023-08-12T06:21:29;8.87;;;3.37;;
6751;SDS011;3413;47.680;9.166;2023-08-12T06:26:31;8.23;;;3.43;;
6751;SDS011;3413;47.680;9.166;2023-08-12T06:31:33;6.17;;;3.37;;
6751;SDS011;3413;47.680;9.166;2023-08-12T06:36:36;5.30;;;3.37;;
6751;SDS011;3413;47.680;9.166;2023-08-12T06:41:37;8.27;;;4.03;;
6751;SDS011;3413;47.680;9.166;2023-08-12T06:46:39;6.37;;;3.67;;
6751;SDS011;3413;47.680;9.166;2023-08-12T06:51:41;5.93;;;3.57;;
6751;SDS011;3413;47.680;9.166;2023-08-12T06:56:43;6.13;;;3.37;;
6751;SDS011;3413;47.680;9.166;2023-08-12T07:01:45;9.53;;;4.10;;
6751;SDS011;3413;47.680;9.166;2023-08-12T07:06:47;6.33;;;3.23;;
6751;SDS011;3413;47.680;9.166;2023-08-12T07:11:49;5.40;;;2.83;;
6751;SDS011;3413;47.680;9.166;2023-08-12T07:16:51;7.93;;;3.07;;
6751;SDS011;3413;47.680;9.166;2023-08-12T07:21:53;8.27;;;3.27;;
6751;SDS011;3413;47.680;9.166;2023-08-12T07:26:55;4.07;;;2.80;;
6751;SDS011;3413;47.680;9.166;2023-08-12T07:31:57;8.53;;;3.60;;
6751;SDS011;3413;47.680;9.166;2023-08-12T07:36:59;7.30;;;3.10;;
6751;SDS011;3413;47.680;9.166;2023-08-12T07:42:01;7.13;;;3.47;;
6751;SDS011;3413;47.680;9.166;2023-08-12T07:47:03;8.60;;;3.50;;
6751;SDS011;3413;47.680;9.166;2023-08-12T07:52:05;6.03;;;3.40;;
6751;SDS011;3413;47.680;9.166;2023-08-12T07:57:07;5.20;;;2.70;;
6751;SDS011;3413;47.680;9.166;2023-08-12T08:02:09;9.50;;;3.23;;
6751;SDS011;3413;47.680;9.166;2023-08-12T08:07:12;9.07;;;4.03;;
6751;SDS011;3413;47.680;9.166;2023-08-12T08:12:14;6.87;;;3.40;;
6751;SDS011;3413;47.680;9.166;2023-08-12T08:17:16;4.40;;;2.93;;
6751;SDS011;3413;47.680;9.166;2023-08-12T08:22:18;5.20;;;3.07;;
6751;SDS011;3413;47.680;9.166;2023-08-12T08:27:20;5.90;;;2.90;;
6751;SDS011;3413;47.680;9.166;2023-08-12T08:32:22;7.57;;;3.30;;
6751;SDS011;3413;47.680;9.166;2023-08-12T08:37:24;5.47;;;3.13;;
6751;SDS011;3413;47.680;9.166;2023-08-12T08:42:26;5.70;;;3.00;;
6751;SDS011;3413;47.680;9.166;2023-08-12T08:47:29;4.80;;;2.70;;
6751;SDS011;3413;47.680;9.166;2023-08-12T08:52:32;37.77;;;6.43;;
6751;SDS011;3413;47.680;9.166;2023-08-12T08:57:34;5.93;;;3.20;;
6751;SDS011;3413;47.680;9.166;2023-08-12T09:02:48;14.80;;;6.83;;
6751;SDS011;3413;47.680;9.166;2023-08-12T09:07:52;6.50;;;3.13;;
6751;SDS011;3413;47.680;9.166;2023-08-12T09:12:56;6.60;;;2.90;;
6751;SDS011;3413;47.680;9.166;2023-08-12T09:17:58;4.73;;;2.80;;
6751;SDS011;3413;47.680;9.166;2023-08-12T09:23:00;6.63;;;3.20;;
6751;SDS011;3413;47.680;9.166;2023-08-12T09:28:04;9.33;;;2.80;;
6751;SDS011;3413;47.680;9.166;2023-08-12T09:33:07;4.27;;;2.40;;
6751;SDS011;3413;47.680;9.166;2023-08-12T09:38:12;10.43;;;3.13;;
6751;SDS011;3413;47.680;9.166;2023-08-12T09:43:14;5.93;;;2.67;;
6751;SDS011;3413;47.680;9.166;2023-08-12T09:48:18;4.90;;;2.60;;
6751;SDS011;3413;47.680;9.166;2023-08-12T09:53:24;12.43;;;3.20;;
6751;SDS011;3413;47.680;9.166;2023-08-12T09:58:27;4.90;;;2.90;;
6751;SDS011;3413;47.680;9.166;2023-08-12T10:03:32;4.83;;;2.87;;
6751;SDS011;3413;47.680;9.166;2023-08-12T10:08:35;4.60;;;2.83;;
6751;SDS011;3413;47.680;9.166;2023-08-12T10:13:39;5.97;;;2.50;;
6751;SDS011;3413;47.680;9.166;2023-08-12T10:18:41;5.50;;;2.97;;
6751;SDS011;3413;47.680;9.166;2023-08-12T10:23:44;4.33;;;2.80;;
6751;SDS011;3413;47.680;9.166;2023-08-12T10:28:48;4.80;;;2.10;;
6751;SDS011;3413;47.680;9.166;2023-08-12T10:33:53;4.47;;;2.70;;
6751;SDS011;3413;47.680;9.166;2023-08-12T10:38:56;4.50;;;2.60;;
6751;SDS011;3413;47.680;9.166;2023-08-12T10:44:01;7.97;;;2.73;;
6751;SDS011;3413;47.680;9.166;2023-08-12T10:49:07;7.13;;;3.00;;
6751;SDS011;3413;47.680;9.166;2023-08-12T10:54:16;5.30;;;2.83;;
6751;SDS011;3413;47.680;9.166;2023-08-12T11:04:54;5.87;;;3.10;;
6751;SDS011;3413;47.680;9.166;2023-08-12T11:09:58;6.40;;;3.03;;
6751;SDS011;3413;47.680;9.166;2023-08-12T11:15:05;5.40;;;2.80;;
6751;SDS011;3413;47.680;9.166;2023-08-12T11:20:08;10.10;;;3.30;;
6751;SDS011;3413;47.680;9.166;2023-08-12T11:25:12;4.90;;;2.90;;
6751;SDS011;3413;47.680;9.166;2023-08-12T11:30:16;7.10;;;3.23;;
6751;SDS011;3413;47.680;9.166;2023-08-12T11:35:21;6.83;;;2.97;;
6751;SDS011;3413;47.680;9.166;2023-08-12T11:40:24;6.70;;;3.17;;
6751;SDS011;3413;47.680;9.166;2023-08-12T11:45:28;6.80;;;3.00;;
6751;SDS011;3413;47.680;9.166;2023-08-12T11:50:30;11.73;;;3.23;;
6751;SDS011;3413;47.680;9.166;2023-08-12T11:55:31;7.63;;;3.00;;
6751;SDS011;3413;47.680;9.166;2023-08-12T12:00:34;7.67;;;3.10;;
6751;SDS011;3413;47.680;9.166;2023-08-12T12:05:36;7.17;;;3.23;;
6751;SDS011;3413;47.680;9.166;2023-08-12T12:10:37;5.13;;;2.83;;
6751;SDS011;3413;47.680;9.166;2023-08-12T12:15:43;4.93;;;2.33;;
6751;SDS011;3413;47.680;9.166;2023-08-12T12:20:57;4.53;;;2.30;;
6751;SDS011;3413;47.680;9.166;2023-08-12T12:26:01;5.17;;;2.40;;
6751;SDS011;3413;47.680;9.166;2023-08-12T12:31:04;3.70;;;1.93;;
6751;SDS011;3413;47.680;9.166;2023-08-12T12:36:06;3.50;;;2.10;;
6751;SDS011;3413;47.680;9.166;2023-08-12T12:41:08;3.50;;;2.37;;
6751;SDS011;3413;47.680;9.166;2023-08-12T12:46:10;5.20;;;2.80;;
6751;SDS011;3413;47.680;9.166;2023-08-12T12:51:13;8.20;;;2.50;;
6751;SDS011;3413;47.680;9.166;2023-08-12T12:56:15;5.70;;;2.43;;
6751;SDS011;3413;47.680;9.166;2023-08-12T13:01:17;9.37;;;2.73;;
6751;SDS011;3413;47.680;9.166;2023-08-12T13:06:19;3.33;;;2.00;;
6751;SDS011;3413;47.680;9.166;2023-08-12T13:11:21;5.20;;;2.53;;
6751;SDS011;3413;47.680;9.166;2023-08-12T13:16:22;7.03;;;2.30;;
6751;SDS011;3413;47.680;9.166;2023-08-12T13:21:25;13.93;;;1.80;;
6751;SDS011;3413;47.680;9.166;2023-08-12T13:26:27;3.10;;;1.70;;
6751;SDS011;3413;47.680;9.166;2023-08-12T13:31:29;4.90;;;1.70;;
6751;SDS011;3413;47.680;9.166;2023-08-12T13:36:31;3.50;;;1.63;;
6751;SDS011;3413;47.680;9.166;2023-08-12T13:41:36;3.50;;;1.70;;
6751;SDS011;3413;47.680;9.166;2023-08-12T13:46:38;5.60;;;1.87;;
6751;SDS011;3413;47.680;9.166;2023-08-12T13:51:40;3.60;;;1.67;;
6751;SDS011;3413;47.680;9.166;2023-08-12T13:56:42;4.80;;;2.27;;
6751;SDS011;3413;47.680;9.166;2023-08-12T14:01:44;2.70;;;1.80;;
6751;SDS011;3413;47.680;9.166;2023-08-12T14:06:46;3.60;;;2.00;;
6751;SDS011;3413;47.680;9.166;2023-08-12T14:11:48;3.40;;;1.70;;
6751;SDS011;3413;47.680;9.166;2023-08-12T14:16:50;3.83;;;1.50;;
6751;SDS011;3413;47.680;9.166;2023-08-12T14:21:52;3.20;;;1.77;;
6751;SDS011;3413;47.680;9.166;2023-08-12T14:26:54;4.17;;;1.97;;
6751;SDS011;3413;47.680;9.166;2023-08-12T14:31:56;3.57;;;1.93;;
6751;SDS011;3413;47.680;9.166;2023-08-12T14:36:58;3.10;;;1.83;;
6751;SDS011;3413;47.680;9.166;2023-08-12T14:42:00;4.60;;;1.97;;
6751;SDS011;3413;47.680;9.166;2023-08-12T14:47:04;6.27;;;1.90;;
6751;SDS011;3413;47.680;9.166;2023-08-12T14:52:14;4.00;;;1.73;;
6751;SDS011;3413;47.680;9.166;2023-08-12T14:57:20;4.50;;;1.87;;
6751;SDS011;3413;47.680;9.166;2023-08-12T15:02:22;6.83;;;2.30;;
6751;SDS011;3413;47.680;9.166;2023-08-12T15:07:24;3.47;;;1.90;;
6751;SDS011;3413;47.680;9.166;2023-08-12T15:12:26;4.40;;;2.33;;
6751;SDS011;3413;47.680;9.166;2023-08-12T15:17:28;3.67;;;1.60;;
6751;SDS011;3413;47.680;9.166;2023-08-12T15:22:30;3.50;;;1.93;;
6751;SDS011;3413;47.680;9.166;2023-08-12T15:27:32;6.40;;;2.23;;
6751;SDS011;3413;47.680;9.166;2023-08-12T15:32:34;3.50;;;1.90;;
6751;SDS011;3413;47.680;9.166;2023-08-12T15:37:42;4.30;;;2.00;;
6751;SDS011;3413;47.680;9.166;2023-08-12T15:42:44;6.97;;;2.40;;
6751;SDS011;3413;47.680;9.166;2023-08-12T15:47:47;3.73;;;1.87;;
6751;SDS011;3413;47.680;9.166;2023-08-12T15:52:49;4.00;;;2.00;;
6751;SDS011;3413;47.680;9.166;2023-08-12T15:57:52;5.40;;;2.00;;
6751;SDS011;3413;47.680;9.166;2023-08-12T16:02:54;4.60;;;2.30;;
6751;SDS011;3413;47.680;9.166;2023-08-12T16:07:57;3.90;;;2.10;;
6751;SDS011;3413;47.680;9.166;2023-08-12T16:12:59;3.67;;;1.90;;
6751;SDS011;3413;47.680;9.166;2023-08-12T16:18:01;5.97;;;2.20;;
6751;SDS011;3413;47.680;9.166;2023-08-12T16:23:03;5.00;;;2.23;;
6751;SDS011;3413;47.680;9.166;2023-08-12T16:28:05;7.10;;;2.00;;
6751;SDS011;3413;47.680;9.166;2023-08-12T16:33:07;3.50;;;2.07;;
6751;SDS011;3413;47.680;9.166;2023-08-12T16:38:09;5.83;;;2.50;;
6751;SDS011;3413;47.680;9.166;2023-08-12T16:43:11;4.60;;;2.23;;
6751;SDS011;3413;47.680;9.166;2023-08-12T16:48:13;5.27;;;2.37;;
6751;SDS011;3413;47.680;9.166;2023-08-12T16:53:15;3.90;;;2.30;;
6751;SDS011;3413;47.680;9.166;2023-08-12T16:58:17;5.10;;;2.23;;
6751;SDS011;3413;47.680;9.166;2023-08-12T17:03:19;6.30;;;2.57;;
6751;SDS011;3413;47.680;9.166;2023-08-12T17:08:21;4.23;;;2.50;;
6751;SDS011;3413;47.680;9.166;2023-08-12T17:13:23;6.23;;;2.70;;
6751;SDS011;3413;47.680;9.166;2023-08-12T17:18:25;4.70;;;2.40;;
6751;SDS011;3413;47.680;9.166;2023-08-12T17:23:27;6.13;;;2.40;;
6751;SDS011;3413;47.680;9.166;2023-08-12T17:28:29;10.33;;;1.97;;
6751;SDS011;3413;47.680;9.166;2023-08-12T17:33:31;5.73;;;2.90;;
6751;SDS011;3413;47.680;9.166;2023-08-12T17:38:33;4.70;;;2.60;;
6751;SDS011;3413;47.680;9.166;2023-08-12T17:43:35;6.03;;;2.60;;
6751;SDS011;3413;47.680;9.166;2023-08-12T17:48:38;4.70;;;2.27;;
6751;SDS011;3413;47.680;9.166;2023-08-12T17:53:40;7.97;;;2.37;;
6751;SDS011;3413;47.680;9.166;2023-08-12T17:58:45;3.90;;;2.57;;
6751;SDS011;3413;47.680;9.166;2023-08-12T18:03:46;4.53;;;2.20;;
6751;SDS011;3413;47.680;9.166;2023-08-12T18:08:48;6.30;;;2.40;;
6751;SDS011;3413;47.680;9.166;2023-08-12T18:13:50;9.07;;;2.80;;
6751;SDS011;3413;47.680;9.166;2023-08-12T18:18:52;6.20;;;3.43;;
6751;SDS011;3413;47.680;9.166;2023-08-12T18:23:54;5.17;;;2.53;;
6751;SDS011;3413;47.680;9.166;2023-08-12T18:28:56;4.87;;;2.50;;
6751;SDS011;3413;47.680;9.166;2023-08-12T18:33:58;3.70;;;2.10;;
6751;SDS011;3413;47.680;9.166;2023-08-12T18:39:00;4.77;;;2.17;;
6751;SDS011;3413;47.680;9.166;2023-08-12T18:44:02;7.93;;;2.93;;
6751;SDS011;3413;47.680;9.166;2023-08-12T18:49:04;11.23;;;3.00;;
6751;SDS011;3413;47.680;9.166;2023-08-12T18:54:06;4.53;;;2.70;;
6751;SDS011;3413;47.680;9.166;2023-08-12T18:59:08;4.13;;;2.30;;
6751;SDS011;3413;47.680;9.166;2023-08-12T19:04:10;5.30;;;2.37;;
6751;SDS011;3413;47.680;9.166;2023-08-12T19:09:13;8.20;;;2.90;;
6751;SDS011;3413;47.680;9.166;2023-08-12T19:14:17;6.73;;;2.60;;
6751;SDS011;3413;47.680;9.166;2023-08-12T19:19:19;3.20;;;2.07;;
6751;SDS011;3413;47.680;9.166;2023-08-12T19:24:21;5.00;;;2.70;;
6751;SDS011;3413;47.680;9.166;2023-08-12T19:29:26;6.03;;;2.70;;
6751;SDS011;3413;47.680;9.166;2023-08-12T19:34:28;6.87;;;3.40;;
6751;SDS011;3413;47.680;9.166;2023-08-12T19:39:32;7.20;;;3.10;;
6751;SDS011;3413;47.680;9.166;2023-08-12T19:44:34;5.80;;;3.47;;
6751;SDS011;3413;47.680;9.166;2023-08-12T19:49:36;8.23;;;3.10;;
6751;SDS011;3413;47.680;9.166;2023-08-12T19:54:38;6.00;;;3.00;;
6751;SDS011;3413;47.680;9.166;2023-08-12T19:59:40;5.83;;;3.20;;
6751;SDS011;3413;47.680;9.166;2023-08-12T20:04:42;7.90;;;3.20;;
6751;SDS011;3413;47.680;9.166;2023-08-12T20:09:45;8.90;;;3.63;;
6751;SDS011;3413;47.680;9.166;2023-08-12T20:14:47;7.73;;;2.97;;
6751;SDS011;3413;47.680;9.166;2023-08-12T20:19:49;5.40;;;2.77;;
6751;SDS011;3413;47.680;9.166;2023-08-12T20:24:51;4.23;;;2.17;;
6751;SDS011;3413;47.680;9.166;2023-08-12T20:29:53;6.20;;;2.50;;
6751;SDS011;3413;47.680;9.166;2023-08-12T20:34:55;8.33;;;3.00;;
6751;SDS011;3413;47.680;9.166;2023-08-12T20:39:58;5.40;;;3.00;;
6751;SDS011;3413;47.680;9.166;2023-08-12T20:45:00;5.87;;;2.40;;
6751;SDS011;3413;47.680;9.166;2023-08-12T20:50:02;13.30;;;3.50;;
6751;SDS011;3413;47.680;9.166;2023-08-12T20:55:04;6.47;;;3.03;;
6751;SDS011;3413;47.680;9.166;2023-08-12T21:00:07;8.23;;;3.23;;
6751;SDS011;3413;47.680;9.166;2023-08-12T21:05:10;7.50;;;3.50;;
6751;SDS011;3413;47.680;9.166;2023-08-12T21:10:12;11.33;;;2.87;;
6751;SDS011;3413;47.680;9.166;2023-08-12T21:15:14;4.63;;;2.93;;
6751;SDS011;3413;47.680;9.166;2023-08-12T21:20:16;6.13;;;3.17;;
6751;SDS011;3413;47.680;9.166;2023-08-12T21:25:18;6.63;;;3.00;;
6751;SDS011;3413;47.680;9.166;2023-08-12T21:30:20;4.10;;;2.83;;
6751;SDS011;3413;47.680;9.166;2023-08-12T21:35:22;5.60;;;2.90;;
6751;SDS011;3413;47.680;9.166;2023-08-12T21:40:24;5.87;;;3.20;;
6751;SDS011;3413;47.680;9.166;2023-08-12T21:45:26;7.20;;;3.37;;
6751;SDS011;3413;47.680;9.166;2023-08-12T21:50:29;5.90;;;2.70;;
6751;SDS011;3413;47.680;9.166;2023-08-12T21:55:31;5.53;;;2.50;;
6751;SDS011;3413;47.680;9.166;2023-08-12T22:00:32;7.70;;;3.00;;
6751;SDS011;3413;47.680;9.166;2023-08-12T22:05:34;5.57;;;2.90;;
6751;SDS011;3413;47.680;9.166;2023-08-12T22:10:36;8.87;;;4.20;;
6751;SDS011;3413;47.680;9.166;2023-08-12T22:15:38;10.13;;;4.30;;
6751;SDS011;3413;47.680;9.166;2023-08-12T22:20:40;5.97;;;3.00;;
6751;SDS011;3413;47.680;9.166;2023-08-12T22:25:42;5.77;;;3.23;;
6751;SDS011;3413;47.680;9.166;2023-08-12T22:30:45;10.43;;;3.90;;
6751;SDS011;3413;47.680;9.166;2023-08-12T22:35:48;12.77;;;4.37;;
6751;SDS011;3413;47.680;9.166;2023-08-12T22:40:50;7.00;;;3.70;;
6751;SDS011;3413;47.680;9.166;2023-08-12T22:45:52;8.67;;;2.90;;
6751;SDS011;3413;47.680;9.166;2023-08-12T22:50:54;6.37;;;2.90;;
6751;SDS011;3413;47.680;9.166;2023-08-12T22:55:57;6.43;;;3.10;;
6751;SDS011;3413;47.680;9.166;2023-08-12T23:00:58;6.80;;;2.97;;
6751;SDS011;3413;47.680;9.166;2023-08-12T23:06:00;4.97;;;2.73;;
6751;SDS011;3413;47.680;9.166;2023-08-12T23:11:04;7.30;;;3.20;;
6751;SDS011;3413;47.680;9.166;2023-08-12T23:16:06;9.67;;;3.63;;
6751;SDS011;3413;47.680;9.166;2023-08-12T23:21:08;14.17;;;4.83;;
6751;SDS011;3413;47.680;9.166;2023-08-12T23:26:10;9.03;;;3.97;;
6751;SDS011;3413;47.680;9.166;2023-08-12T23:31:12;6.33;;;3.80;;
6751;SDS011;3413;47.680;9.166;2023-08-12T23:36:13;8.80;;;4.53;;
6751;SDS011;3413;47.680;9.166;2023-08-12T23:41:15;10.37;;;4.30;;
6751;SDS011;3413;47.680;9.166;2023-08-12T23:46:17;10.60;;;4.60;;
6751;SDS011;3413;47.680;9.166;2023-08-12T23:51:19;9.20;;;4.33;;
6751;SDS011;3413;47.680;9.166;2023-08-12T23:56:21;11.37;;;4.67;;
